createdAt,value
2022-09-16T00:01:13.460Z,99641.16
2022-09-16T00:03:43.747Z,99629.72
2022-09-16T00:06:20.266Z,99635.84
2022-09-16T00:08:49.111Z,99629.72
2022-09-16T00:11:17.736Z,99628.84
2022-09-16T00:13:46.842Z,99618.31
2022-09-16T00:16:21.890Z,99616.56
2022-09-16T00:18:54.878Z,99623.59
2022-09-16T00:21:23.879Z,99629.75
2022-09-16T00:23:52.541Z,99630.63
2022-09-16T00:26:20.917Z,99632.38
2022-09-16T00:28:50.614Z,99624.47
2022-09-16T00:31:19.121Z,99635.00
2022-09-16T00:33:48.659Z,99631.50
2022-09-16T00:36:20.287Z,99631.47
2022-09-16T00:38:51.886Z,99630.59
2022-09-16T00:41:22.303Z,99636.72
2022-09-16T00:43:53.409Z,99638.47
2022-09-16T00:46:27.018Z,99639.34
2022-09-16T00:48:55.602Z,99641.09
2022-09-16T00:51:25.962Z,99639.34
2022-09-16T00:53:57.901Z,99635.81
2022-09-16T00:56:28.913Z,99636.66
2022-09-16T00:59:03.319Z,99642.78
2022-09-16T01:01:32.321Z,99645.38
2022-09-16T01:04:05.134Z,99640.13
2022-09-16T01:06:39.388Z,99642.72
2022-09-16T01:09:08.151Z,99645.38
2022-09-16T01:11:36.697Z,99642.72
2022-09-16T01:14:24.306Z,99640.13
2022-09-16T01:16:59.690Z,99632.19
2022-09-16T01:19:46.963Z,99637.44
2022-09-16T01:22:28.999Z,99638.31
2022-09-16T01:25:08.061Z,99638.28
2022-09-16T01:28:02.000Z,99639.16
2022-09-16T01:30:50.897Z,99640.91
2022-09-16T01:33:31.547Z,99637.38
2022-09-16T01:36:15.371Z,99633.84
2022-09-16T01:38:58.505Z,99632.09
2022-09-16T01:41:35.528Z,99625.97
2022-09-16T01:44:12.834Z,99639.09
2022-09-16T01:46:49.010Z,99637.34
2022-09-16T01:49:24.959Z,99632.03
2022-09-16T01:52:00.082Z,99635.53
2022-09-16T01:54:35.225Z,99632.91
2022-09-16T01:57:09.241Z,99630.28
2022-09-16T01:59:43.006Z,99625.91
2022-09-16T02:02:18.654Z,99621.50
2022-09-16T02:04:52.117Z,99630.28
2022-09-16T02:07:24.295Z,99625.91
2022-09-16T02:09:56.971Z,99629.41
2022-09-16T02:12:29.116Z,99631.16
2022-09-16T02:15:04.870Z,99640.78
2022-09-16T02:17:39.701Z,99625.00
2022-09-16T02:20:11.423Z,99619.75
2022-09-16T02:22:44.322Z,99619.75
2022-09-16T02:25:15.505Z,99624.09
2022-09-16T02:27:47.224Z,99620.59
2022-09-16T02:30:18.746Z,99621.47
2022-09-16T02:32:51.093Z,99619.69
2022-09-16T02:35:21.627Z,99615.31
2022-09-16T02:37:53.938Z,99624.94
2022-09-16T02:40:27.829Z,99621.41
2022-09-16T02:42:58.360Z,99619.69
2022-09-16T02:45:34.001Z,99624.03
2022-09-16T02:48:10.789Z,99619.63
2022-09-16T02:50:48.061Z,99619.69
2022-09-16T02:53:21.989Z,99616.97
2022-09-16T02:55:56.286Z,99615.25
2022-09-16T02:58:24.723Z,99622.31
2022-09-16T03:00:55.722Z,99613.50
2022-09-16T03:03:26.130Z,99610.00
2022-09-16T03:06:12.089Z,99606.47
2022-09-16T03:08:41.763Z,99611.78
2022-09-16T03:11:36.911Z,99603.91
2022-09-16T03:14:37.491Z,99597.75
2022-09-16T03:17:19.603Z,99606.53
2022-09-16T03:19:59.527Z,99611.78
2022-09-16T03:22:40.578Z,99609.16
2022-09-16T03:25:15.478Z,99610.91
2022-09-16T03:27:50.394Z,99605.59
2022-09-16T03:30:19.695Z,99615.25
2022-09-16T03:32:52.806Z,99609.09
2022-09-16T03:35:27.550Z,99604.69
2022-09-16T03:37:58.316Z,99604.72
2022-09-16T03:40:29.730Z,99603.84
2022-09-16T03:42:59.217Z,99600.31
2022-09-16T03:45:27.512Z,99592.44
2022-09-16T03:47:55.808Z,99600.31
2022-09-16T03:50:25.419Z,99598.53
2022-09-16T03:52:53.643Z,99598.53
2022-09-16T03:55:21.905Z,99593.28
2022-09-16T03:57:50.181Z,99600.31
2022-09-16T04:00:18.491Z,99600.31
2022-09-16T04:02:46.771Z,99594.16
2022-09-16T04:05:15.282Z,99592.41
2022-09-16T04:07:44.909Z,99589.78
2022-09-16T04:10:13.194Z,99584.50
2022-09-16T04:12:41.446Z,99582.75
2022-09-16T04:15:10.524Z,99583.59
2022-09-16T04:17:38.890Z,99578.31
2022-09-16T04:20:08.707Z,99573.94
2022-09-16T04:22:36.981Z,99580.00
2022-09-16T04:25:07.745Z,99580.91
2022-09-16T04:27:36.298Z,99579.13
2022-09-16T04:30:05.159Z,99575.59
2022-09-16T04:32:33.426Z,99587.00
2022-09-16T04:35:01.696Z,99579.94
2022-09-16T04:37:31.597Z,99587.84
2022-09-16T04:40:03.787Z,99582.53
2022-09-16T04:42:34.503Z,99586.03
2022-09-16T04:45:02.798Z,99587.78
2022-09-16T04:47:31.114Z,99590.41
2022-09-16T04:49:59.582Z,99592.16
2022-09-16T04:52:28.167Z,99591.28
2022-09-16T04:54:58.318Z,99587.75
2022-09-16T04:57:26.768Z,99596.47
2022-09-16T04:59:56.389Z,99587.72
2022-09-16T05:02:24.721Z,99578.94
2022-09-16T05:04:53.047Z,99582.41
2022-09-16T05:07:21.314Z,99588.53
2022-09-16T05:09:49.570Z,99580.66
2022-09-16T05:12:17.874Z,99584.13
2022-09-16T05:14:46.133Z,99571.88
2022-09-16T05:17:27.849Z,99584.13
2022-09-16T05:20:04.470Z,99584.09
2022-09-16T05:22:32.805Z,99584.09
2022-09-16T05:25:01.061Z,99579.69
2022-09-16T05:27:31.409Z,99579.69
2022-09-16T05:29:59.726Z,99583.19
2022-09-16T05:32:29.344Z,99588.44
2022-09-16T05:34:58.170Z,99600.69
2022-09-16T05:37:26.479Z,99589.31
2022-09-16T05:39:55.423Z,99591.94
2022-09-16T05:42:23.731Z,99597.19
2022-09-16T05:44:51.954Z,99591.91
2022-09-16T05:47:20.232Z,99594.53
2022-09-16T05:49:49.894Z,99598.91
2022-09-16T05:52:18.138Z,99596.28
2022-09-16T05:54:46.785Z,99600.66
2022-09-16T05:57:15.344Z,99598.91
2022-09-16T05:59:43.600Z,99598.03
2022-09-16T06:02:13.239Z,99596.28
2022-09-16T06:04:42.475Z,99595.41
2022-09-16T06:07:12.522Z,99601.50
2022-09-16T06:09:41.687Z,99605.00
2022-09-16T06:12:10.984Z,99605.91
2022-09-16T06:14:39.260Z,99601.53
2022-09-16T06:17:07.674Z,99604.16
2022-09-16T06:19:35.993Z,99606.75
2022-09-16T06:22:04.447Z,99613.75
2022-09-16T06:24:34.087Z,99607.63
2022-09-16T06:27:02.375Z,99612.84
2022-09-16T06:29:30.670Z,99616.34
2022-09-16T06:31:59.050Z,99614.59
2022-09-16T06:34:27.467Z,99605.81
2022-09-16T06:36:55.770Z,99611.06
2022-09-16T06:39:24.123Z,99610.19
2022-09-16T06:41:53.789Z,99613.72
2022-09-16T06:44:30.381Z,99610.22
2022-09-16T06:46:58.682Z,99612.00
2022-09-16T06:49:27.014Z,99599.75
2022-09-16T06:51:55.320Z,99604.13
2022-09-16T06:54:23.595Z,99612.00
2022-09-16T06:56:53.244Z,99606.75
2022-09-16T06:59:21.521Z,99607.63
2022-09-16T07:01:49.784Z,99606.78
2022-09-16T07:04:18.074Z,99602.44
2022-09-16T07:09:35.122Z,99605.94
2022-09-16T07:12:05.552Z,99608.56
2022-09-16T07:14:33.837Z,99614.72
2022-09-16T07:17:03.063Z,99619.13
2022-09-16T07:19:31.403Z,99620.88
2022-09-16T07:21:59.757Z,99614.78
2022-09-16T07:24:28.115Z,99615.69
2022-09-16T07:26:56.521Z,99619.19
2022-09-16T07:29:26.182Z,99616.56
2022-09-16T07:31:54.525Z,99622.69
2022-09-16T07:34:22.898Z,99622.66
2022-09-16T07:36:51.219Z,99627.06
2022-09-16T07:39:21.145Z,99627.94
2022-09-16T07:41:49.526Z,99634.94
2022-09-16T07:44:19.962Z,99636.69
2022-09-16T07:46:51.330Z,99648.94
2022-09-16T07:49:20.273Z,99626.13
2022-09-16T07:51:48.825Z,99629.66
2022-09-16T07:54:18.891Z,99631.41
2022-09-16T07:56:47.214Z,99635.84
2022-09-16T07:59:19.312Z,99629.75
2022-09-16T08:01:50.560Z,99636.78
2022-09-16T08:04:20.233Z,99632.44
2022-09-16T08:06:48.971Z,99644.78
2022-09-16T08:12:07.794Z,99644.00
2022-09-16T08:14:36.328Z,99634.41
2022-09-16T08:17:06.642Z,99643.22
2022-09-16T08:19:34.979Z,99640.66
2022-09-16T08:22:03.302Z,99648.59
2022-09-16T08:24:31.684Z,99647.78
2022-09-16T08:27:00.025Z,99648.72
2022-09-16T08:29:28.452Z,99648.75
2022-09-16T08:31:56.748Z,99648.75
2022-09-16T08:34:26.731Z,99643.53
2022-09-16T08:36:55.011Z,99654.13
2022-09-16T08:39:23.320Z,99646.25
2022-09-16T08:42:10.577Z,99641.94
2022-09-16T08:44:45.902Z,99643.75
2022-09-16T08:47:28.542Z,99648.22
2022-09-16T08:50:00.907Z,99644.72
2022-09-16T08:52:32.606Z,99652.66
2022-09-16T08:55:04.161Z,99657.09
2022-09-16T08:57:42.657Z,99658.84
2022-09-16T09:00:16.691Z,99655.34
2022-09-16T09:02:53.780Z,99655.38
2022-09-16T09:05:36.552Z,99660.63
2022-09-16T09:08:23.629Z,99651.88
2022-09-16T09:10:54.594Z,99651.91
2022-09-16T09:13:39.693Z,99651.94
2022-09-16T09:16:17.480Z,99652.00
2022-09-16T09:18:57.330Z,99656.41
2022-09-16T09:21:35.288Z,99664.34
2022-09-16T09:24:24.003Z,99654.66
2022-09-16T09:26:55.916Z,99648.53
2022-09-16T09:29:39.826Z,99653.84
2022-09-16T09:32:18.025Z,99652.09
2022-09-16T09:35:03.653Z,99654.72
2022-09-16T09:37:55.505Z,99648.59
2022-09-16T09:40:32.907Z,99653.00
2022-09-16T09:43:10.801Z,99646.84
2022-09-16T09:45:44.415Z,99645.09
2022-09-16T09:48:21.498Z,99642.47
2022-09-16T09:50:51.566Z,99643.34
2022-09-16T09:53:26.293Z,99647.72
2022-09-16T09:56:00.447Z,99640.72
2022-09-16T09:58:35.377Z,99642.47
2022-09-16T10:01:04.608Z,99639.84
2022-09-16T10:03:33.085Z,99638.06
2022-09-16T10:06:01.474Z,99635.44
2022-09-16T10:08:47.609Z,99640.72
2022-09-16T10:11:18.742Z,99631.03
2022-09-16T10:13:52.346Z,99633.69
2022-09-16T10:16:22.892Z,99629.28
2022-09-16T10:18:58.992Z,99619.63
2022-09-16T10:21:38.693Z,99621.38
2022-09-16T10:24:29.970Z,99616.97
2022-09-16T10:26:58.783Z,99623.13
2022-09-16T10:29:27.715Z,99623.13
2022-09-16T10:31:59.174Z,99629.28
2022-09-16T10:34:33.008Z,99624.00
2022-09-16T10:37:15.538Z,99609.91
2022-09-16T10:39:51.371Z,99610.75
2022-09-16T10:42:23.685Z,99614.28
2022-09-16T10:44:53.959Z,99606.31
2022-09-16T10:47:25.615Z,99615.13
2022-09-16T10:49:57.403Z,99611.66
2022-09-16T10:52:28.170Z,99607.22
2022-09-16T10:54:58.269Z,99608.13
2022-09-16T10:57:29.814Z,99604.59
2022-09-16T11:00:01.311Z,99605.47
2022-09-16T11:02:53.698Z,99602.78
2022-09-16T11:05:32.342Z,99600.09
2022-09-16T11:08:11.259Z,99609.72
2022-09-16T11:10:48.629Z,99598.28
2022-09-16T11:13:29.767Z,99602.69
2022-09-16T11:16:14.675Z,99616.78
2022-09-16T11:18:50.759Z,99615.91
2022-09-16T11:21:49.725Z,99608.91
2022-09-16T11:24:43.407Z,99604.53
2022-09-16T11:27:21.254Z,99601.88
2022-09-16T11:30:12.282Z,99608.97
2022-09-16T11:33:02.851Z,99616.06
2022-09-16T11:35:44.578Z,99619.63
2022-09-16T11:38:24.300Z,99633.69
2022-09-16T11:41:00.214Z,99644.25
2022-09-16T11:43:56.914Z,99672.34
2022-09-16T11:46:33.373Z,99672.22
2022-09-16T11:49:24.698Z,99673.75
2022-09-16T11:52:08.375Z,99678.84
2022-09-16T11:54:50.759Z,99682.19
2022-09-16T11:57:22.420Z,99666.34
2022-09-16T11:59:56.095Z,99667.19
2022-09-16T12:02:28.539Z,99660.13
2022-09-16T12:05:03.543Z,99663.59
2022-09-16T12:07:37.392Z,99667.09
2022-09-16T12:10:13.559Z,99665.34
2022-09-16T12:12:47.464Z,99679.34
2022-09-16T12:15:21.654Z,99677.59
2022-09-16T12:17:54.925Z,99682.88
2022-09-16T12:20:27.722Z,99675.81
2022-09-16T12:23:01.936Z,99670.50
2022-09-16T12:25:38.002Z,99673.91
2022-09-16T12:28:13.773Z,99674.75
2022-09-16T12:30:46.285Z,99666.84
2022-09-16T12:33:20.241Z,99666.94
2022-09-16T12:35:56.210Z,99660.88
2022-09-16T12:38:25.053Z,99666.28
2022-09-16T12:41:19.774Z,99666.38
2022-09-16T12:44:33.537Z,99671.81
2022-09-16T12:47:25.150Z,99666.72
2022-09-16T12:50:22.225Z,99661.50
2022-09-16T12:53:14.479Z,99650.13
2022-09-16T12:55:55.119Z,99643.97
2022-09-16T12:58:45.203Z,99637.88
2022-09-16T13:01:21.365Z,99642.31
2022-09-16T13:03:56.189Z,99638.84
2022-09-16T13:06:28.686Z,99631.00
2022-09-16T13:08:58.085Z,99631.88
2022-09-16T13:14:24.735Z,99632.78
2022-09-16T13:16:55.750Z,99642.44
2022-09-16T13:19:36.264Z,99636.31
2022-09-16T13:22:17.426Z,99648.63
2022-09-16T13:24:49.404Z,99660.03
2022-09-16T13:27:26.406Z,99664.44
2022-09-16T13:30:17.104Z,99669.69
2022-09-16T13:32:57.773Z,99666.19
2022-09-16T13:35:40.095Z,99665.28
2022-09-16T13:38:39.655Z,99668.78
2022-09-16T13:41:11.171Z,99664.41
2022-09-16T13:43:51.647Z,99660.88
2022-09-16T13:46:32.238Z,99667.94
2022-09-16T13:49:13.072Z,99669.69
2022-09-16T13:51:45.566Z,99660.88
2022-09-16T13:54:37.136Z,99660.00
2022-09-16T13:57:27.812Z,99661.72
2022-09-16T14:00:08.742Z,99674.91
2022-09-16T14:02:57.793Z,99656.44
2022-09-16T14:05:43.197Z,99670.53
2022-09-16T14:08:20.393Z,99660.91
2022-09-16T14:10:57.324Z,99649.50
2022-09-16T14:13:26.237Z,99652.16
2022-09-16T14:15:59.412Z,99645.13
2022-09-16T14:18:30.958Z,99659.16
2022-09-16T14:21:05.139Z,99654.78
2022-09-16T14:23:35.330Z,99653.03
2022-09-16T14:26:11.668Z,99655.69
2022-09-16T14:28:40.038Z,99650.38
2022-09-16T14:31:11.715Z,99642.47
2022-09-16T14:33:44.829Z,99646.84
2022-09-16T14:36:15.981Z,99638.94
2022-09-16T14:38:50.026Z,99643.34
2022-09-16T14:41:25.426Z,99641.59
2022-09-16T14:43:56.848Z,99640.72
2022-09-16T14:46:25.436Z,99641.59
2022-09-16T14:48:53.781Z,99641.59
2022-09-16T14:51:25.832Z,99643.38
2022-09-16T14:54:13.419Z,99643.34
2022-09-16T14:56:42.099Z,99638.84
2022-09-16T14:59:13.035Z,99632.66
2022-09-16T15:01:42.665Z,99641.38
2022-09-16T15:04:19.072Z,99636.94
2022-09-16T15:06:52.702Z,99640.41
2022-09-16T15:09:29.462Z,99641.22
2022-09-16T15:12:00.812Z,99630.50
2022-09-16T15:14:29.658Z,99638.34
2022-09-16T15:17:02.461Z,99639.09
2022-09-16T15:19:34.973Z,99630.16
2022-09-16T15:22:04.855Z,99636.28
2022-09-16T15:24:35.878Z,99626.63
2022-09-16T15:27:04.741Z,99622.22
2022-09-16T15:29:35.344Z,99618.69
2022-09-16T15:32:21.699Z,99617.88
2022-09-16T15:35:01.591Z,99616.03
2022-09-16T15:37:32.019Z,99627.53
2022-09-16T15:40:20.536Z,99614.31
2022-09-16T15:42:50.227Z,99606.34
2022-09-16T15:45:20.749Z,99613.53
2022-09-16T15:47:57.218Z,99616.13
2022-09-16T15:50:28.955Z,99613.41
2022-09-16T15:53:02.455Z,99608.00
2022-09-16T15:55:36.408Z,99607.06
2022-09-16T15:58:09.688Z,99617.69
2022-09-16T16:01:00.261Z,99614.19
2022-09-16T16:03:31.479Z,99604.50
2022-09-16T16:06:00.574Z,99612.59
2022-09-16T16:08:42.233Z,99617.09
2022-09-16T16:11:14.081Z,99614.53
2022-09-16T16:13:42.636Z,99615.44
2022-09-16T16:16:12.856Z,99621.66
2022-09-16T16:18:42.659Z,99616.44
2022-09-16T16:21:12.992Z,99625.38
2022-09-16T16:23:41.515Z,99632.44
2022-09-16T16:26:12.521Z,99630.69
2022-09-16T16:28:40.803Z,99636.94
2022-09-16T16:31:14.487Z,99646.69
2022-09-16T16:33:44.967Z,99641.44
2022-09-16T16:36:14.981Z,99641.47
2022-09-16T16:38:43.700Z,99644.13
2022-09-16T16:41:13.544Z,99638.03
2022-09-16T16:43:41.840Z,99654.75
2022-09-16T16:46:10.190Z,99654.78
2022-09-16T16:48:39.129Z,99654.78
2022-09-16T16:51:09.889Z,99653.03
2022-09-16T16:53:39.245Z,99660.06
2022-09-16T16:56:14.524Z,99648.63
2022-09-16T16:58:45.341Z,99648.63
2022-09-16T17:01:16.298Z,99656.56
2022-09-16T17:03:47.591Z,99662.66
2022-09-16T17:06:16.530Z,99655.66
2022-09-16T17:08:44.871Z,99655.66
2022-09-16T17:11:15.063Z,99659.13
2022-09-16T17:13:46.495Z,99664.41
2022-09-16T17:16:17.309Z,99657.38
2022-09-16T17:18:46.009Z,99663.50
2022-09-16T17:21:16.435Z,99667.91
2022-09-16T17:23:45.086Z,99670.50
2022-09-16T17:26:14.878Z,99673.13
2022-09-16T17:28:47.346Z,99666.09
2022-09-16T17:31:17.304Z,99675.75
2022-09-16T17:33:45.809Z,99673.97
2022-09-16T17:36:16.296Z,99684.41
2022-09-16T17:38:44.634Z,99682.66
2022-09-16T17:41:14.732Z,99689.66
2022-09-16T17:43:45.320Z,99690.53
2022-09-16T17:46:17.169Z,99687.88
2022-09-16T17:48:45.634Z,99691.38
2022-09-16T17:51:15.012Z,99691.34
2022-09-16T17:53:43.953Z,99695.75
2022-09-16T17:56:14.189Z,99697.47
2022-09-16T17:58:45.002Z,99695.66
2022-09-16T18:01:16.569Z,99703.53
2022-09-16T18:03:46.812Z,99708.75
2022-09-16T18:06:17.089Z,99713.09
2022-09-16T18:08:46.981Z,99707.78
2022-09-16T18:11:16.686Z,99706.88
2022-09-16T18:13:46.455Z,99706.84
2022-09-16T18:16:19.044Z,99706.81
2022-09-16T18:18:51.913Z,99704.13
2022-09-16T18:21:21.761Z,99706.75
2022-09-16T18:23:54.165Z,99704.97
2022-09-16T18:26:22.750Z,99711.06
2022-09-16T18:29:09.103Z,99709.31
2022-09-16T18:31:40.237Z,99717.19
2022-09-16T18:34:08.551Z,99711.88
2022-09-16T18:36:37.733Z,99715.34
2022-09-16T18:39:07.529Z,99718.81
2022-09-16T18:41:38.003Z,99712.63
2022-09-16T18:44:11.481Z,99721.38
2022-09-16T18:46:41.386Z,99726.63
2022-09-16T18:49:12.411Z,99719.56
2022-09-16T18:51:46.110Z,99730.88
2022-09-16T18:54:19.126Z,99719.47
2022-09-16T18:56:47.449Z,99727.31
2022-09-16T18:59:22.945Z,99732.53
2022-09-16T19:01:54.765Z,99728.13
2022-09-16T19:04:24.943Z,99725.44
2022-09-16T19:06:55.540Z,99728.06
2022-09-16T19:09:25.261Z,99728.03
2022-09-16T19:11:54.519Z,99724.50
2022-09-16T19:14:24.753Z,99730.59
2022-09-16T19:16:55.084Z,99729.69
2022-09-16T19:19:23.420Z,99736.59
2022-09-16T19:21:51.715Z,99733.09
2022-09-16T19:24:21.750Z,99733.09
2022-09-16T19:26:52.534Z,99739.19
2022-09-16T19:29:21.161Z,99740.00
2022-09-16T19:31:52.681Z,99732.97
2022-09-16T19:34:22.958Z,99746.06
2022-09-16T19:36:51.721Z,99735.53
2022-09-16T19:39:21.268Z,99740.75
2022-09-16T19:41:49.783Z,99749.47
2022-09-16T19:44:19.193Z,99748.56
2022-09-16T19:46:49.306Z,99748.53
2022-09-16T19:49:20.414Z,99751.09
2022-09-16T19:51:52.492Z,99741.44
2022-09-16T19:54:23.891Z,99744.91
2022-09-16T19:56:52.216Z,99742.22
2022-09-16T19:59:21.271Z,99746.56
2022-09-16T20:01:50.030Z,99736.03
2022-09-16T20:04:20.818Z,99741.22
2022-09-16T20:06:50.802Z,99746.41
2022-09-16T20:09:19.655Z,99752.50
2022-09-16T20:11:49.080Z,99743.69
2022-09-16T20:14:19.766Z,99748.03
2022-09-16T20:16:49.146Z,99758.47
2022-09-16T20:19:20.065Z,99765.41
2022-09-16T20:21:49.872Z,99768.88
2022-09-16T20:24:20.261Z,99765.28
2022-09-16T20:26:48.919Z,99760.00
2022-09-16T20:29:18.263Z,99765.22
2022-09-16T20:31:48.038Z,99773.88
2022-09-16T20:34:17.160Z,99786.09
2022-09-16T20:36:46.424Z,99774.69
2022-09-16T20:39:16.607Z,99780.75
2022-09-16T20:41:49.650Z,99794.63
2022-09-16T20:44:17.983Z,99788.47
2022-09-16T20:46:46.233Z,99791.97
2022-09-16T20:49:17.004Z,99791.91
2022-09-16T20:51:45.872Z,99797.09
2022-09-16T20:54:17.150Z,99797.91
2022-09-16T20:56:47.836Z,99797.84
2022-09-16T20:59:18.480Z,99796.06
2022-09-16T21:01:48.307Z,99798.66
2022-09-16T21:04:19.724Z,99796.00
2022-09-16T21:06:48.213Z,99795.94
2022-09-16T21:09:18.932Z,99802.03
2022-09-16T21:11:47.262Z,99802.88
2022-09-16T21:14:17.561Z,99796.75
2022-09-16T21:16:46.884Z,99802.81
2022-09-16T21:19:15.340Z,99809.78
2022-09-16T21:21:46.320Z,99806.25
2022-09-16T21:24:14.671Z,99808.88
2022-09-16T21:26:45.327Z,99808.84
2022-09-16T21:29:15.141Z,99804.47
2022-09-16T21:31:44.186Z,99803.59
2022-09-16T21:34:14.863Z,99811.50
2022-09-16T21:36:44.633Z,99805.38
2022-09-16T21:39:14.085Z,99808.88
2022-09-16T21:41:44.293Z,99811.50
2022-09-16T21:44:13.123Z,99804.47
2022-09-16T21:46:45.201Z,99809.72
2022-09-16T21:49:18.154Z,99804.41
2022-09-16T21:51:46.601Z,99816.66
2022-09-16T21:54:19.649Z,99808.78
2022-09-16T21:56:50.647Z,99814.94
2022-09-16T21:59:20.332Z,99816.69
2022-09-16T22:01:50.191Z,99812.31
2022-09-16T22:04:20.489Z,99812.31
2022-09-16T22:06:49.714Z,99814.06
2022-09-16T22:09:18.741Z,99816.66
2022-09-16T22:11:48.702Z,99814.91
2022-09-16T22:14:17.397Z,99819.28
2022-09-16T22:16:46.018Z,99817.53
2022-09-16T22:19:16.357Z,99824.50
2022-09-16T22:21:46.195Z,99822.72
2022-09-16T22:24:16.123Z,99828.88
2022-09-16T22:26:44.635Z,99828.88
2022-09-16T22:29:14.463Z,99815.72
2022-09-16T22:31:43.096Z,99825.34
2022-09-16T22:34:11.685Z,99816.56
2022-09-16T22:36:40.463Z,99822.66
2022-09-16T22:39:12.332Z,99823.50
2022-09-16T22:41:40.709Z,99823.50
2022-09-16T22:44:09.107Z,99818.19
2022-09-16T22:46:42.763Z,99821.69
2022-09-16T22:49:11.971Z,99823.41
2022-09-16T22:51:40.969Z,99821.59
2022-09-16T22:54:10.131Z,99828.56
2022-09-16T22:56:38.443Z,99820.69
2022-09-16T22:59:08.385Z,99823.31
2022-09-16T23:01:39.551Z,99823.31
2022-09-16T23:04:10.715Z,99825.03
2022-09-16T23:06:41.286Z,99821.50
2022-09-16T23:09:10.234Z,99816.22
2022-09-16T23:11:38.578Z,99818.78
2022-09-16T23:14:08.629Z,99822.28
2022-09-16T23:16:38.438Z,99823.16
2022-09-16T23:19:10.608Z,99823.97
2022-09-16T23:21:39.995Z,99824.84
2022-09-16T23:24:10.373Z,99825.72
2022-09-16T23:26:39.787Z,99820.47
2022-09-16T23:29:11.262Z,99822.19
2022-09-16T23:31:41.746Z,99823.09
2022-09-16T23:34:14.002Z,99819.63
2022-09-16T23:36:42.629Z,99821.38
2022-09-16T23:39:14.075Z,99816.13
2022-09-16T23:41:43.485Z,99817.03
2022-09-16T23:44:14.387Z,99813.50
2022-09-16T23:46:43.028Z,99810.88
2022-09-16T23:49:12.921Z,99815.25
2022-09-16T23:51:41.329Z,99813.50
2022-09-16T23:54:09.836Z,99807.38
2022-09-16T23:56:38.141Z,99813.50
2022-09-16T23:59:06.420Z,99821.34
